Time;durP1;ratioP1;P1;durP2;ratioP2;P2;SDS_P1;SDS_P2;PMS_P1;PMS_P2;Temp;Humidity;BMP_temperature;BMP_pressure;BME280_temperature;BME280_humidity;BME280_pressure;Samples;Min_cycle;Max_cycle;Signal;HPM_P1;HPM_P2
2023/12/24 00:00:39;;;;;;;0.83;0.70;;;;;;;;;;6227789;22;20423;-88
2023/12/24 00:03:05;;;;;;;0.90;0.90;;;;;;;;;;6256141;22;20370;-87
2023/12/24 00:05:31;;;;;;;1.70;0.80;;;;;;;;;;6227844;22;20896;-88
2023/12/24 00:07:57;;;;;;;0.80;0.60;;;;;;;;;;6230861;22;20397;-87
2023/12/24 00:10:23;;;;;;;0.70;0.50;;;;;;;;;;6227050;22;20410;-87
2023/12/24 00:12:49;;;;;;;3.10;0.70;;;;;;;;;;6230626;22;20374;-89
2023/12/24 00:15:18;;;;;;;0.70;0.63;;;;;;;;;;6226924;22;20385;-89
2023/12/24 00:17:44;;;;;;;0.77;0.70;;;;;;;;;;6231158;22;20370;-89
2023/12/24 00:20:10;;;;;;;0.80;0.80;;;;;;;;;;6228179;22;20985;-89
2023/12/24 00:22:36;;;;;;;1.17;0.70;;;;;;;;;;6230649;22;20429;-88
2023/12/24 00:25:02;;;;;;;0.70;0.60;;;;;;;;;;6255082;22;20424;-88
2023/12/24 00:27:28;;;;;;;0.83;0.83;;;;;;;;;;6233794;22;20757;-89
2023/12/24 00:29:54;;;;;;;0.60;0.60;;;;;;;;;;6284416;22;20373;-89
2023/12/24 00:32:20;;;;;;;0.87;0.80;;;;;;;;;;6287898;22;20376;-88
2023/12/24 00:34:46;;;;;;;0.60;0.60;;;;;;;;;;6286613;22;20840;-88
2023/12/24 00:37:12;;;;;;;1.00;0.60;;;;;;;;;;6286077;22;20384;-88
2023/12/24 00:39:38;;;;;;;1.13;0.80;;;;;;;;;;6285864;22;20425;-88
2023/12/24 00:42:04;;;;;;;0.90;0.70;;;;;;;;;;6289450;22;20412;-87
2023/12/24 00:44:30;;;;;;;0.70;0.70;;;;;;;;;;6288474;22;20382;-87
2023/12/24 00:46:56;;;;;;;1.00;0.67;;;;;;;;;;6287962;22;20411;-88
2023/12/24 00:49:25;;;;;;;0.60;0.60;;;;;;;;;;6312674;22;20411;-88
2023/12/24 00:51:53;;;;;;;0.80;0.70;;;;;;;;;;6314382;22;20364;-89
2023/12/24 00:54:19;;;;;;;2.03;0.70;;;;;;;;;;6291749;22;21197;-88
2023/12/24 00:56:45;;;;;;;0.70;0.60;;;;;;;;;;6287600;22;20412;-89
2023/12/24 00:59:11;;;;;;;0.70;0.60;;;;;;;;;;6293683;22;20372;-87
2023/12/24 01:01:39;;;;;;;1.13;0.90;;;;;;;;;;6288467;22;20424;-88
2023/12/24 01:04:05;;;;;;;0.80;0.73;;;;;;;;;;6312994;22;20371;-89
2023/12/24 01:06:31;;;;;;;0.73;0.57;;;;;;;;;;6286149;22;20364;-87
2023/12/24 01:08:57;;;;;;;1.50;0.70;;;;;;;;;;6286390;22;20373;-88
2023/12/24 01:11:23;;;;;;;1.13;0.63;;;;;;;;;;6285756;22;20403;-88
2023/12/24 01:13:49;;;;;;;0.70;0.60;;;;;;;;;;6289681;22;20380;-88
2023/12/24 01:16:15;;;;;;;0.70;0.70;;;;;;;;;;6286592;22;20368;-88
2023/12/24 01:18:41;;;;;;;1.00;0.70;;;;;;;;;;6313043;22;20369;-88
2023/12/24 01:21:07;;;;;;;0.67;0.67;;;;;;;;;;6311881;22;20411;-88
2023/12/24 01:23:33;;;;;;;1.13;0.60;;;;;;;;;;6310943;22;20360;-88
2023/12/24 01:25:59;;;;;;;0.77;0.73;;;;;;;;;;6286272;22;20682;-88
2023/12/24 01:28:25;;;;;;;1.00;0.60;;;;;;;;;;6311684;22;20368;-90
2023/12/24 01:30:52;;;;;;;0.80;0.80;;;;;;;;;;6286580;22;20380;-88
2023/12/24 01:33:20;;;;;;;0.60;0.60;;;;;;;;;;6292251;22;20385;-88
2023/12/24 01:35:47;;;;;;;0.80;0.60;;;;;;;;;;6313613;22;20389;-88
2023/12/24 01:38:13;;;;;;;2.87;0.70;;;;;;;;;;6314597;22;20730;-88
2023/12/24 01:40:44;;;;;;;0.70;0.70;;;;;;;;;;6287388;22;20438;-88
2023/12/24 01:43:10;;;;;;;0.60;0.60;;;;;;;;;;6290742;22;21106;-88
2023/12/24 01:45:36;;;;;;;0.70;0.63;;;;;;;;;;6313424;22;20347;-88
2023/12/24 01:48:02;;;;;;;0.70;0.70;;;;;;;;;;6287497;22;20380;-88
2023/12/24 01:50:28;;;;;;;1.27;0.77;;;;;;;;;;6285899;22;20368;-90
2023/12/24 01:52:54;;;;;;;0.70;0.70;;;;;;;;;;6287797;22;20376;-89
2023/12/24 01:55:20;;;;;;;1.10;0.70;;;;;;;;;;6310670;22;20386;-88
2023/12/24 01:57:46;;;;;;;0.80;0.80;;;;;;;;;;6287455;22;20375;-88
2023/12/24 02:00:12;;;;;;;0.80;0.70;;;;;;;;;;6286942;22;20384;-88
2023/12/24 02:02:38;;;;;;;1.20;0.90;;;;;;;;;;6286263;22;20507;-88
2023/12/24 02:05:04;;;;;;;1.87;0.70;;;;;;;;;;6286182;22;20708;-88
2023/12/24 02:07:34;;;;;;;0.70;0.60;;;;;;;;;;6291794;22;20407;-88
2023/12/24 02:10:01;;;;;;;1.93;0.80;;;;;;;;;;6286587;22;20380;-88
2023/12/24 02:12:27;;;;;;;0.70;0.60;;;;;;;;;;6287027;22;20383;-89
2023/12/24 02:14:53;;;;;;;1.47;0.70;;;;;;;;;;6286809;22;20376;-88
2023/12/24 02:17:19;;;;;;;0.80;0.70;;;;;;;;;;6314179;22;20372;-88
2023/12/24 02:19:45;;;;;;;0.87;0.67;;;;;;;;;;6286422;22;20415;-88
2023/12/24 02:22:11;;;;;;;0.67;0.57;;;;;;;;;;6287737;22;20408;-87
2023/12/24 02:24:37;;;;;;;0.93;0.87;;;;;;;;;;6285626;22;20495;-88
2023/12/24 02:27:10;;;;;;;0.70;0.70;;;;;;;;;;6285705;22;20376;-87
2023/12/24 02:29:38;;;;;;;0.87;0.63;;;;;;;;;;6287608;22;20376;-88
2023/12/24 02:32:17;;;;;;;0.67;0.60;;;;;;;;;;6287142;22;20372;-88
2023/12/24 02:34:43;;;;;;;0.90;0.80;;;;;;;;;;6312776;22;20404;-88
2023/12/24 02:37:09;;;;;;;1.40;0.97;;;;;;;;;;6287474;22;20461;-88
2023/12/24 02:39:39;;;;;;;0.90;0.70;;;;;;;;;;6256555;22;20358;-89
2023/12/24 02:42:05;;;;;;;0.80;0.70;;;;;;;;;;6227257;22;20481;-88
2023/12/24 02:44:31;;;;;;;0.83;0.73;;;;;;;;;;6231140;22;20385;-89
2023/12/24 02:46:57;;;;;;;0.60;0.60;;;;;;;;;;6227492;22;20377;-89
2023/12/24 02:49:23;;;;;;;0.70;0.60;;;;;;;;;;6229045;22;20382;-89
2023/12/24 02:51:49;;;;;;;0.90;0.73;;;;;;;;;;6228122;22;20444;-88
2023/12/24 02:54:15;;;;;;;1.00;0.73;;;;;;;;;;6230021;22;20387;-88
2023/12/24 02:56:41;;;;;;;2.50;0.80;;;;;;;;;;6227953;22;20377;-88
2023/12/24 02:59:07;;;;;;;1.10;0.70;;;;;;;;;;6255874;22;20447;-88
2023/12/24 03:01:33;;;;;;;0.70;0.70;;;;;;;;;;6255312;22;20409;-88
2023/12/24 03:03:59;;;;;;;0.70;0.70;;;;;;;;;;6230303;22;20476;-88
2023/12/24 03:06:26;;;;;;;1.93;0.80;;;;;;;;;;6227297;22;20393;-88
2023/12/24 03:08:52;;;;;;;0.80;0.70;;;;;;;;;;6229677;22;20357;-88
2023/12/24 03:11:18;;;;;;;0.90;0.70;;;;;;;;;;6273734;22;20448;-88
2023/12/24 03:13:44;;;;;;;0.70;0.60;;;;;;;;;;6285422;22;21120;-88
2023/12/24 03:16:10;;;;;;;0.93;0.83;;;;;;;;;;6311228;22;20875;-88
2023/12/24 03:18:36;;;;;;;1.17;0.80;;;;;;;;;;6286782;22;20454;-89
2023/12/24 03:21:03;;;;;;;0.80;0.60;;;;;;;;;;6285225;22;20403;-88
2023/12/24 03:23:29;;;;;;;1.13;1.00;;;;;;;;;;6284727;22;20380;-89
2023/12/24 03:25:55;;;;;;;1.50;0.77;;;;;;;;;;6311596;22;20365;-89
2023/12/24 03:28:22;;;;;;;1.20;0.80;;;;;;;;;;6283358;22;20372;-88
2023/12/24 03:30:48;;;;;;;0.83;0.70;;;;;;;;;;6283392;22;20492;-89
2023/12/24 03:33:17;;;;;;;0.80;0.80;;;;;;;;;;6281004;22;20380;-89
2023/12/24 03:35:43;;;;;;;0.90;0.80;;;;;;;;;;6282054;22;20411;-89
2023/12/24 03:38:09;;;;;;;0.87;0.87;;;;;;;;;;6283480;22;20828;-89
2023/12/24 03:40:35;;;;;;;1.03;0.93;;;;;;;;;;6285156;22;20384;-89
2023/12/24 03:43:01;;;;;;;0.70;0.70;;;;;;;;;;6284117;22;20400;-88
2023/12/24 03:45:27;;;;;;;0.80;0.80;;;;;;;;;;6284858;22;20389;-88
2023/12/24 03:47:53;;;;;;;1.27;0.90;;;;;;;;;;6281262;22;20376;-88
2023/12/24 03:50:19;;;;;;;0.70;0.67;;;;;;;;;;6285448;22;20422;-88
2023/12/24 03:52:45;;;;;;;0.90;0.77;;;;;;;;;;6283233;22;20460;-88
2023/12/24 03:55:11;;;;;;;1.13;0.97;;;;;;;;;;6284381;22;20415;-89
2023/12/24 03:57:37;;;;;;;0.83;0.80;;;;;;;;;;6281992;22;20769;-88
2023/12/24 04:00:03;;;;;;;0.80;0.80;;;;;;;;;;6285175;22;20380;-87
2023/12/24 04:02:29;;;;;;;0.80;0.70;;;;;;;;;;6304637;22;20420;-89
2023/12/24 04:04:55;;;;;;;0.60;0.60;;;;;;;;;;6286903;22;20384;-89
2023/12/24 04:07:21;;;;;;;1.27;0.87;;;;;;;;;;6286094;22;20373;-88
2023/12/24 04:09:47;;;;;;;0.70;0.70;;;;;;;;;;6317084;22;20365;-88
2023/12/24 04:12:13;;;;;;;1.23;1.00;;;;;;;;;;6285897;22;20383;-88
2023/12/24 04:14:39;;;;;;;1.07;0.83;;;;;;;;;;6288132;22;20439;-88
2023/12/24 04:17:06;;;;;;;1.13;0.83;;;;;;;;;;6284872;22;20467;-89
2023/12/24 04:19:32;;;;;;;0.90;0.70;;;;;;;;;;6285288;22;20372;-89
2023/12/24 04:21:58;;;;;;;0.80;0.70;;;;;;;;;;6284071;22;20454;-88
2023/12/24 04:24:24;;;;;;;0.80;0.80;;;;;;;;;;6289387;22;20372;-88
2023/12/24 04:26:50;;;;;;;1.00;0.63;;;;;;;;;;6286728;22;20365;-89
2023/12/24 04:29:16;;;;;;;1.00;0.90;;;;;;;;;;6290161;22;20467;-88
2023/12/24 04:31:42;;;;;;;1.63;0.93;;;;;;;;;;6288339;22;20459;-88
2023/12/24 04:34:08;;;;;;;1.27;1.03;;;;;;;;;;6311524;22;20449;-87
2023/12/24 04:36:34;;;;;;;0.83;0.73;;;;;;;;;;6315363;22;20379;-88
2023/12/24 04:39:00;;;;;;;2.83;0.90;;;;;;;;;;6312362;22;20395;-88
2023/12/24 04:41:28;;;;;;;0.83;0.80;;;;;;;;;;6318701;22;20408;-87
2023/12/24 04:43:54;;;;;;;1.50;0.77;;;;;;;;;;6312115;22;20391;-88
2023/12/24 04:46:20;;;;;;;1.13;0.90;;;;;;;;;;6287548;22;20373;-88
2023/12/24 04:48:46;;;;;;;0.93;0.90;;;;;;;;;;6285997;22;20435;-89
2023/12/24 04:51:12;;;;;;;1.03;1.00;;;;;;;;;;6285543;22;20396;-88
2023/12/24 04:53:38;;;;;;;3.43;0.87;;;;;;;;;;6284888;22;20376;-88
2023/12/24 04:56:04;;;;;;;1.37;0.93;;;;;;;;;;6288407;22;20835;-87
2023/12/24 04:58:30;;;;;;;1.10;0.70;;;;;;;;;;6286942;22;20383;-88
2023/12/24 05:00:57;;;;;;;0.70;0.70;;;;;;;;;;6288539;22;20416;-88
2023/12/24 05:03:23;;;;;;;1.10;1.00;;;;;;;;;;6289134;22;20448;-89
2023/12/24 05:05:49;;;;;;;1.80;1.00;;;;;;;;;;6286519;22;20380;-88
2023/12/24 05:08:15;;;;;;;2.00;0.90;;;;;;;;;;6287630;22;20464;-88
2023/12/24 05:10:41;;;;;;;0.93;0.60;;;;;;;;;;6287805;22;20902;-88
2023/12/24 05:13:07;;;;;;;1.70;0.93;;;;;;;;;;6294027;22;20700;-88
2023/12/24 05:15:33;;;;;;;1.13;0.73;;;;;;;;;;6286765;22;20388;-89
2023/12/24 05:17:59;;;;;;;0.93;0.90;;;;;;;;;;6290130;22;20365;-88
2023/12/24 05:20:25;;;;;;;1.83;0.80;;;;;;;;;;6292517;22;20872;-89
2023/12/24 05:22:51;;;;;;;3.13;0.80;;;;;;;;;;6301999;22;20392;-88
2023/12/24 05:25:17;;;;;;;1.13;0.90;;;;;;;;;;6302156;22;20449;-88
2023/12/24 05:27:43;;;;;;;0.87;0.70;;;;;;;;;;6303003;22;20429;-89
2023/12/24 05:30:09;;;;;;;0.70;0.60;;;;;;;;;;6302412;22;20483;-88
2023/12/24 05:32:35;;;;;;;1.53;0.80;;;;;;;;;;6302730;22;20392;-89
2023/12/24 05:35:01;;;;;;;0.90;0.80;;;;;;;;;;6302790;22;20380;-89
2023/12/24 05:37:27;;;;;;;1.00;0.57;;;;;;;;;;6302890;22;20384;-88
2023/12/24 05:39:53;;;;;;;0.70;0.63;;;;;;;;;;6327922;22;20349;-87
2023/12/24 05:42:19;;;;;;;1.13;0.70;;;;;;;;;;6314346;22;20416;-88
2023/12/24 05:44:45;;;;;;;1.57;1.00;;;;;;;;;;6316658;22;20370;-88
2023/12/24 05:47:11;;;;;;;1.13;0.70;;;;;;;;;;6287936;22;20380;-87
2023/12/24 05:49:40;;;;;;;0.90;0.63;;;;;;;;;;6287775;22;20448;-86
2023/12/24 05:52:06;;;;;;;0.93;0.83;;;;;;;;;;6285758;22;20411;-89
2023/12/24 05:54:32;;;;;;;1.00;0.70;;;;;;;;;;6286947;22;20369;-89
2023/12/24 05:56:58;;;;;;;0.80;0.67;;;;;;;;;;6286413;22;20375;-88
2023/12/24 05:59:24;;;;;;;0.70;0.70;;;;;;;;;;6287245;22;20380;-88
2023/12/24 06:01:50;;;;;;;1.10;0.80;;;;;;;;;;6287337;22;20415;-89
2023/12/24 06:04:16;;;;;;;0.93;0.77;;;;;;;;;;6288499;22;20381;-89
2023/12/24 06:06:42;;;;;;;0.97;0.97;;;;;;;;;;6287052;22;20368;-89
2023/12/24 06:09:08;;;;;;;0.90;0.60;;;;;;;;;;6288708;22;20381;-88
2023/12/24 06:11:34;;;;;;;1.13;0.70;;;;;;;;;;6286416;22;20433;-89
2023/12/24 06:14:00;;;;;;;0.63;0.63;;;;;;;;;;6292881;22;20913;-89
2023/12/24 06:16:26;;;;;;;1.00;0.80;;;;;;;;;;6313042;22;20415;-88
2023/12/24 06:18:52;;;;;;;0.80;0.70;;;;;;;;;;6287921;22;20373;-88
2023/12/24 06:21:18;;;;;;;0.70;0.70;;;;;;;;;;6286750;22;20466;-88
2023/12/24 06:23:44;;;;;;;0.60;0.57;;;;;;;;;;6287232;22;20396;-88
2023/12/24 06:26:10;;;;;;;0.70;0.60;;;;;;;;;;6312027;22;20808;-88
2023/12/24 06:28:36;;;;;;;0.70;0.60;;;;;;;;;;6287883;22;20444;-88
2023/12/24 06:31:02;;;;;;;0.70;0.60;;;;;;;;;;6253888;22;20373;-88
2023/12/24 06:33:29;;;;;;;0.70;0.60;;;;;;;;;;6256096;22;20366;-88
2023/12/24 06:35:55;;;;;;;0.70;0.60;;;;;;;;;;6230263;22;20397;-88
2023/12/24 06:38:21;;;;;;;1.17;0.60;;;;;;;;;;6255017;22;20369;-89
2023/12/24 06:40:47;;;;;;;0.70;0.70;;;;;;;;;;6252650;22;20467;-88
2023/12/24 06:43:13;;;;;;;0.80;0.80;;;;;;;;;;6231706;22;20381;-88
2023/12/24 06:45:39;;;;;;;1.60;0.80;;;;;;;;;;6254946;22;20369;-88
2023/12/24 06:48:05;;;;;;;1.10;0.60;;;;;;;;;;6229418;22;20373;-88
2023/12/24 06:50:31;;;;;;;1.00;0.90;;;;;;;;;;6230575;22;20500;-89
2023/12/24 06:52:57;;;;;;;1.00;0.70;;;;;;;;;;6230837;22;20430;-87
2023/12/24 06:55:23;;;;;;;1.83;0.60;;;;;;;;;;6230054;22;20423;-88
2023/12/24 06:57:49;;;;;;;0.70;0.60;;;;;;;;;;6254930;22;20421;-88
2023/12/24 07:00:15;;;;;;;0.90;0.70;;;;;;;;;;6232129;22;20892;-89
2023/12/24 07:02:41;;;;;;;0.83;0.70;;;;;;;;;;6275213;22;20420;-90
2023/12/24 07:05:07;;;;;;;0.90;0.60;;;;;;;;;;6288393;22;20407;-91
2023/12/24 07:07:33;;;;;;;0.70;0.70;;;;;;;;;;6286862;22;20384;-90
2023/12/24 07:09:59;;;;;;;0.60;0.50;;;;;;;;;;6287734;22;20704;-91
2023/12/24 07:12:27;;;;;;;1.00;0.70;;;;;;;;;;6286922;22;20469;-90
2023/12/24 07:14:53;;;;;;;1.87;1.10;;;;;;;;;;6289150;22;20361;-90
2023/12/24 07:17:19;;;;;;;2.50;0.70;;;;;;;;;;6285503;22;20380;-90
2023/12/24 07:19:45;;;;;;;1.40;0.80;;;;;;;;;;6290887;22;20380;-90
2023/12/24 07:22:11;;;;;;;0.80;0.80;;;;;;;;;;6285782;22;20427;-90
2023/12/24 07:24:37;;;;;;;0.70;0.50;;;;;;;;;;6289140;22;20585;-89
2023/12/24 07:27:03;;;;;;;1.43;0.87;;;;;;;;;;6285730;22;20376;-90
2023/12/24 07:29:29;;;;;;;1.60;0.73;;;;;;;;;;6286053;22;20451;-90
2023/12/24 07:31:55;;;;;;;0.80;0.77;;;;;;;;;;6285550;22;20369;-90
2023/12/24 07:34:21;;;;;;;1.03;0.93;;;;;;;;;;6287275;22;20734;-90
2023/12/24 07:36:48;;;;;;;1.10;1.00;;;;;;;;;;6315510;22;20561;-90
2023/12/24 07:39:14;;;;;;;1.00;0.70;;;;;;;;;;6260060;22;20966;-91
2023/12/24 07:41:42;;;;;;;0.80;0.67;;;;;;;;;;6230109;22;20421;-90
2023/12/24 07:44:09;;;;;;;0.80;0.80;;;;;;;;;;6232209;22;20427;-90
2023/12/24 07:46:35;;;;;;;0.70;0.70;;;;;;;;;;6231158;22;20377;-90
2023/12/24 07:49:01;;;;;;;1.00;0.90;;;;;;;;;;6255663;22;20370;-90
2023/12/24 07:51:28;;;;;;;0.67;0.60;;;;;;;;;;6228917;22;20385;-89
2023/12/24 07:53:54;;;;;;;0.60;0.50;;;;;;;;;;6231804;22;20381;-90
2023/12/24 07:56:20;;;;;;;0.70;0.60;;;;;;;;;;6230117;22;21026;-90
2023/12/24 07:58:46;;;;;;;0.80;0.60;;;;;;;;;;6232554;22;20391;-89
2023/12/24 08:01:12;;;;;;;0.70;0.50;;;;;;;;;;6230086;22;20480;-89
2023/12/24 08:03:38;;;;;;;0.70;0.60;;;;;;;;;;6230940;22;20373;-89
2023/12/24 08:06:04;;;;;;;0.70;0.70;;;;;;;;;;6229456;22;20388;-89
2023/12/24 08:08:30;;;;;;;0.60;0.50;;;;;;;;;;6228807;22;20377;-89
2023/12/24 08:10:57;;;;;;;1.97;1.30;;;;;;;;;;6229502;22;20390;-89
2023/12/24 08:13:22;;;;;;;1.27;0.60;;;;;;;;;;6260610;22;20365;-90
2023/12/24 08:15:48;;;;;;;0.83;0.67;;;;;;;;;;6256936;22;20396;-89
2023/12/24 08:18:15;;;;;;;0.70;0.60;;;;;;;;;;6235081;22;20412;-90
2023/12/24 08:20:41;;;;;;;0.60;0.50;;;;;;;;;;6231871;22;20524;-90
2023/12/24 08:23:08;;;;;;;0.67;0.53;;;;;;;;;;6265671;22;20368;-89
2023/12/24 08:25:34;;;;;;;0.70;0.60;;;;;;;;;;6288796;22;20424;-90
2023/12/24 08:28:01;;;;;;;0.73;0.73;;;;;;;;;;6289091;22;20369;-90
2023/12/24 08:30:28;;;;;;;0.60;0.50;;;;;;;;;;6290320;22;20368;-90
2023/12/24 08:32:54;;;;;;;2.80;0.80;;;;;;;;;;6290591;22;20862;-89
2023/12/24 08:35:20;;;;;;;0.80;0.67;;;;;;;;;;6288555;22;20379;-90
2023/12/24 08:37:47;;;;;;;0.70;0.60;;;;;;;;;;6294026;22;20380;-90
2023/12/24 08:40:14;;;;;;;0.90;0.60;;;;;;;;;;6289255;22;20372;-90
2023/12/24 08:42:40;;;;;;;0.80;0.50;;;;;;;;;;6290981;22;20514;-90
2023/12/24 08:45:06;;;;;;;0.87;0.70;;;;;;;;;;6315769;22;20364;-91
2023/12/24 08:47:32;;;;;;;0.60;0.50;;;;;;;;;;6319236;22;20364;-90
2023/12/24 08:49:58;;;;;;;1.07;0.60;;;;;;;;;;6290372;22;20408;-89
2023/12/24 08:52:25;;;;;;;0.90;0.70;;;;;;;;;;6287163;22;20396;-91
2023/12/24 08:54:51;;;;;;;0.70;0.57;;;;;;;;;;6313351;22;20819;-91
2023/12/24 08:57:17;;;;;;;0.77;0.53;;;;;;;;;;6291648;22;20828;-91
2023/12/24 08:59:43;;;;;;;0.60;0.50;;;;;;;;;;6286869;22;20387;-90
2023/12/24 09:02:09;;;;;;;0.60;0.50;;;;;;;;;;6288525;22;20419;-91
2023/12/24 09:04:35;;;;;;;0.70;0.70;;;;;;;;;;6289255;22;20832;-90
2023/12/24 09:07:01;;;;;;;0.70;0.50;;;;;;;;;;6289864;22;20372;-90
2023/12/24 09:09:27;;;;;;;0.67;0.50;;;;;;;;;;6287969;22;20426;-89
2023/12/24 09:11:52;;;;;;;0.90;0.60;;;;;;;;;;6291025;22;20377;-91
2023/12/24 09:14:18;;;;;;;0.60;0.50;;;;;;;;;;6288336;22;20380;-89
2023/12/24 09:16:45;;;;;;;0.60;0.50;;;;;;;;;;6289893;22;20414;-90
2023/12/24 09:19:10;;;;;;;0.80;0.60;;;;;;;;;;6291037;22;20412;-91
2023/12/24 09:21:36;;;;;;;0.60;0.50;;;;;;;;;;6293939;22;20442;-90
2023/12/24 09:24:03;;;;;;;2.90;0.77;;;;;;;;;;6287459;22;20380;-91
2023/12/24 09:26:29;;;;;;;0.60;0.50;;;;;;;;;;6287177;22;20388;-90
2023/12/24 09:28:55;;;;;;;1.03;0.50;;;;;;;;;;6287625;22;20503;-89
2023/12/24 09:31:21;;;;;;;2.60;0.70;;;;;;;;;;6295177;22;20381;-90
2023/12/24 09:33:47;;;;;;;0.70;0.60;;;;;;;;;;6283952;22;20357;-90
2023/12/24 09:36:13;;;;;;;1.07;0.70;;;;;;;;;;6256949;22;20397;-91
2023/12/24 09:38:39;;;;;;;0.60;0.50;;;;;;;;;;6255687;22;20418;-91
2023/12/24 09:41:05;;;;;;;0.60;0.50;;;;;;;;;;6255149;22;20409;-91
2023/12/24 09:43:33;;;;;;;0.70;0.70;;;;;;;;;;6257104;22;20408;-91
2023/12/24 09:45:59;;;;;;;0.80;0.70;;;;;;;;;;6255024;22;20388;-91
2023/12/24 09:48:28;;;;;;;0.60;0.60;;;;;;;;;;6256075;22;20402;-91
2023/12/24 09:50:54;;;;;;;0.80;0.80;;;;;;;;;;6256634;22;20386;-91
2023/12/24 09:53:20;;;;;;;1.53;0.50;;;;;;;;;;6257092;22;20465;-91
2023/12/24 09:55:46;;;;;;;0.70;0.60;;;;;;;;;;6305178;22;20376;-90
2023/12/24 09:58:12;;;;;;;0.83;0.83;;;;;;;;;;6259391;22;20418;-92
2023/12/24 10:00:38;;;;;;;0.80;0.60;;;;;;;;;;6259700;22;20388;-90
2023/12/24 10:03:04;;;;;;;0.80;0.80;;;;;;;;;;6263617;22;20378;-90
2023/12/24 10:05:30;;;;;;;1.03;0.60;;;;;;;;;;6281578;22;20373;-88
2023/12/24 10:07:56;;;;;;;0.80;0.63;;;;;;;;;;6290690;22;20388;-88
2023/12/24 10:10:31;;;;;;;0.70;0.53;;;;;;;;;;6286263;22;20400;-89
2023/12/24 10:13:05;;;;;;;0.60;0.60;;;;;;;;;;6314757;22;20360;-88
2023/12/24 10:15:32;;;;;;;0.70;0.60;;;;;;;;;;6287401;22;20381;-88
2023/12/24 10:18:15;;;;;;;0.73;0.73;;;;;;;;;;6286246;22;20368;-88
2023/12/24 10:20:41;;;;;;;0.80;0.70;;;;;;;;;;6285941;22;20417;-88
2023/12/24 10:23:07;;;;;;;1.10;0.60;;;;;;;;;;6289507;22;20404;-88
2023/12/24 10:25:33;;;;;;;1.17;1.00;;;;;;;;;;6283765;22;20400;-89
2023/12/24 10:28:06;;;;;;;0.73;0.67;;;;;;;;;;6287214;22;20912;-88
2023/12/24 10:30:32;;;;;;;0.70;0.70;;;;;;;;;;6284785;22;20430;-88
2023/12/24 10:33:17;;;;;;;0.60;0.57;;;;;;;;;;6286419;22;20863;-89
2023/12/24 10:35:45;;;;;;;0.70;0.60;;;;;;;;;;6290518;22;20943;-88
2023/12/24 10:38:15;;;;;;;0.80;0.73;;;;;;;;;;6286357;22;20449;-89
2023/12/24 10:40:41;;;;;;;0.60;0.60;;;;;;;;;;6286640;22;20385;-88
2023/12/24 10:43:07;;;;;;;0.60;0.50;;;;;;;;;;6310938;22;20369;-88
2023/12/24 10:45:36;;;;;;;0.70;0.60;;;;;;;;;;6313049;22;20426;-88
2023/12/24 10:48:03;;;;;;;0.60;0.43;;;;;;;;;;6285182;22;20433;-90
2023/12/24 10:50:29;;;;;;;0.70;0.60;;;;;;;;;;6284033;22;20436;-89
2023/12/24 10:52:55;;;;;;;0.70;0.60;;;;;;;;;;6285410;22;20387;-88
2023/12/24 10:55:20;;;;;;;0.60;0.60;;;;;;;;;;6283640;22;20380;-88
2023/12/24 10:57:59;;;;;;;1.00;0.70;;;;;;;;;;6288002;22;20384;-89
2023/12/24 11:00:25;;;;;;;0.87;0.50;;;;;;;;;;6286009;22;20384;-89
2023/12/24 11:02:51;;;;;;;0.60;0.50;;;;;;;;;;6285993;22;20419;-89
2023/12/24 11:05:36;;;;;;;0.60;0.50;;;;;;;;;;6286985;22;20384;-89
2023/12/24 11:08:02;;;;;;;2.07;1.10;;;;;;;;;;6316023;22;20348;-89
2023/12/24 11:10:48;;;;;;;1.83;1.23;;;;;;;;;;6284279;22;20380;-89
2023/12/24 11:13:36;;;;;;;0.60;0.60;;;;;;;;;;6313439;22;20377;-88
2023/12/24 11:16:05;;;;;;;0.90;0.77;;;;;;;;;;6313134;22;20854;-89
2023/12/24 11:18:47;;;;;;;1.10;0.63;;;;;;;;;;6288951;22;20365;-89
2023/12/24 11:21:18;;;;;;;0.60;0.50;;;;;;;;;;6286754;22;20416;-88
2023/12/24 11:24:04;;;;;;;0.80;0.50;;;;;;;;;;6287019;22;20404;-89
2023/12/24 11:26:32;;;;;;;0.80;0.80;;;;;;;;;;6311339;22;20399;-89
2023/12/24 11:28:59;;;;;;;0.60;0.50;;;;;;;;;;6289023;22;20384;-89
2023/12/24 11:31:25;;;;;;;0.70;0.50;;;;;;;;;;6316022;22;20369;-89
2023/12/24 11:33:54;;;;;;;0.70;0.60;;;;;;;;;;6287240;22;20409;-89
2023/12/24 11:36:20;;;;;;;0.70;0.60;;;;;;;;;;6289876;22;20385;-89
2023/12/24 11:38:46;;;;;;;0.60;0.50;;;;;;;;;;6286703;22;20376;-89
2023/12/24 11:41:15;;;;;;;0.70;0.60;;;;;;;;;;6317365;22;20423;-89
2023/12/24 11:43:42;;;;;;;0.60;0.40;;;;;;;;;;6312807;22;20372;-89
2023/12/24 11:46:08;;;;;;;0.97;0.60;;;;;;;;;;6290351;22;20411;-88
2023/12/24 11:48:35;;;;;;;0.70;0.50;;;;;;;;;;6258396;22;20388;-89
2023/12/24 11:51:02;;;;;;;0.70;0.70;;;;;;;;;;6234278;22;20437;-88
2023/12/24 11:53:34;;;;;;;0.60;0.50;;;;;;;;;;6258858;22;20393;-89
2023/12/24 11:56:04;;;;;;;0.70;0.60;;;;;;;;;;6235195;22;20833;-89
2023/12/24 11:58:30;;;;;;;0.80;0.60;;;;;;;;;;6258140;22;20849;-88
2023/12/24 12:01:02;;;;;;;0.67;0.53;;;;;;;;;;6232946;22;20417;-90
2023/12/24 12:03:28;;;;;;;0.70;0.60;;;;;;;;;;6231695;22;20369;-88
2023/12/24 12:05:54;;;;;;;0.87;0.60;;;;;;;;;;6230551;22;20385;-91
2023/12/24 12:08:20;;;;;;;0.70;0.60;;;;;;;;;;6229474;22;20404;-91
2023/12/24 12:10:47;;;;;;;0.70;0.60;;;;;;;;;;6229174;22;20382;-91
2023/12/24 12:13:13;;;;;;;0.60;0.60;;;;;;;;;;6231778;22;20389;-89
2023/12/24 12:15:39;;;;;;;0.70;0.60;;;;;;;;;;6231091;22;20376;-90
2023/12/24 12:18:05;;;;;;;0.60;0.40;;;;;;;;;;6231008;22;20369;-91
2023/12/24 12:20:32;;;;;;;0.70;0.60;;;;;;;;;;6282278;22;20386;-88
2023/12/24 12:22:58;;;;;;;0.70;0.60;;;;;;;;;;6293461;22;20430;-89
2023/12/24 12:25:24;;;;;;;0.60;0.50;;;;;;;;;;6290090;22;20391;-89
2023/12/24 12:27:50;;;;;;;0.60;0.57;;;;;;;;;;6316204;22;20372;-89
2023/12/24 12:30:16;;;;;;;0.60;0.50;;;;;;;;;;6289957;22;20392;-89
2023/12/24 12:32:42;;;;;;;0.60;0.50;;;;;;;;;;6291775;22;20678;-88
2023/12/24 12:35:10;;;;;;;1.00;0.60;;;;;;;;;;6290787;22;20379;-88
2023/12/24 12:37:36;;;;;;;0.80;0.60;;;;;;;;;;6291829;22;20417;-88
2023/12/24 12:40:03;;;;;;;0.80;0.60;;;;;;;;;;6315461;22;20372;-88
2023/12/24 12:42:29;;;;;;;0.60;0.50;;;;;;;;;;6291565;22;20416;-89
2023/12/24 12:44:55;;;;;;;0.70;0.60;;;;;;;;;;6289411;22;20440;-88
2023/12/24 12:47:21;;;;;;;0.70;0.60;;;;;;;;;;6316016;22;20356;-89
2023/12/24 12:49:47;;;;;;;0.70;0.57;;;;;;;;;;6288309;22;20398;-89
2023/12/24 12:52:13;;;;;;;1.23;0.63;;;;;;;;;;6291390;22;20380;-89
2023/12/24 12:54:39;;;;;;;0.60;0.60;;;;;;;;;;6291884;22;20372;-88
2023/12/24 12:57:05;;;;;;;0.70;0.50;;;;;;;;;;6291456;22;20377;-89
2023/12/24 12:59:32;;;;;;;0.70;0.60;;;;;;;;;;6315095;22;20360;-89
2023/12/24 13:01:59;;;;;;;0.70;0.50;;;;;;;;;;6291041;22;20430;-91
2023/12/24 13:04:27;;;;;;;0.60;0.50;;;;;;;;;;6290019;22;20404;-89
2023/12/24 13:06:53;;;;;;;0.67;0.63;;;;;;;;;;6291985;22;20372;-89
2023/12/24 13:09:22;;;;;;;0.93;0.60;;;;;;;;;;6288636;22;20445;-88
2023/12/24 13:11:49;;;;;;;0.70;0.60;;;;;;;;;;6290309;22;20384;-90
2023/12/24 13:14:15;;;;;;;1.43;0.60;;;;;;;;;;6287329;22;20402;-89
2023/12/24 13:16:41;;;;;;;0.63;0.50;;;;;;;;;;6293326;22;20724;-89
2023/12/24 13:19:17;;;;;;;0.60;0.60;;;;;;;;;;6287847;22;20392;-89
2023/12/24 13:21:44;;;;;;;1.63;0.60;;;;;;;;;;6316579;22;20415;-91
2023/12/24 13:24:10;;;;;;;0.60;0.50;;;;;;;;;;6288876;22;20430;-90
2023/12/24 13:26:37;;;;;;;0.60;0.50;;;;;;;;;;6292213;22;20422;-89
2023/12/24 13:29:03;;;;;;;0.70;0.60;;;;;;;;;;6288792;22;20494;-89
2023/12/24 13:31:29;;;;;;;0.90;0.70;;;;;;;;;;6288885;22;20414;-89
2023/12/24 13:33:55;;;;;;;0.60;0.50;;;;;;;;;;6290828;22;20384;-90
2023/12/24 13:36:22;;;;;;;0.60;0.50;;;;;;;;;;6314384;22;20381;-91
2023/12/24 13:38:47;;;;;;;0.77;0.50;;;;;;;;;;6288312;22;20373;-90
2023/12/24 13:41:14;;;;;;;0.90;0.70;;;;;;;;;;6286396;22;20416;-90
2023/12/24 13:43:40;;;;;;;0.60;0.50;;;;;;;;;;6289796;22;20376;-90
2023/12/24 13:46:06;;;;;;;0.70;0.53;;;;;;;;;;6315034;22;20367;-89
2023/12/24 13:48:32;;;;;;;0.90;0.50;;;;;;;;;;6291727;22;20460;-88
2023/12/24 13:51:00;;;;;;;0.60;0.57;;;;;;;;;;6287870;22;20368;-90
2023/12/24 13:53:26;;;;;;;0.60;0.50;;;;;;;;;;6289982;22;20372;-89
2023/12/24 13:55:52;;;;;;;0.70;0.50;;;;;;;;;;6289106;22;20372;-90
2023/12/24 13:58:18;;;;;;;2.00;0.50;;;;;;;;;;6285409;22;20390;-91
2023/12/24 14:00:44;;;;;;;0.90;0.60;;;;;;;;;;6290327;22;20376;-88
2023/12/24 14:03:10;;;;;;;0.60;0.50;;;;;;;;;;6287054;22;20373;-90
2023/12/24 14:05:38;;;;;;;2.30;0.63;;;;;;;;;;6287337;22;20467;-90
2023/12/24 14:08:04;;;;;;;0.60;0.40;;;;;;;;;;6289336;22;20658;-89
2023/12/24 14:10:30;;;;;;;0.60;0.50;;;;;;;;;;6288994;22;20407;-90
2023/12/24 14:12:56;;;;;;;1.97;0.70;;;;;;;;;;6287368;22;20452;-90
2023/12/24 14:15:22;;;;;;;1.10;0.70;;;;;;;;;;6289444;22;20410;-90
2023/12/24 14:17:48;;;;;;;0.80;0.60;;;;;;;;;;6288599;22;20404;-90
2023/12/24 14:20:16;;;;;;;0.60;0.53;;;;;;;;;;6289283;22;20411;-89
2023/12/24 14:22:42;;;;;;;0.60;0.40;;;;;;;;;;6289582;22;20452;-90
2023/12/24 14:25:09;;;;;;;0.60;0.53;;;;;;;;;;6290238;22;20400;-90
2023/12/24 14:27:38;;;;;;;0.60;0.50;;;;;;;;;;6289120;22;20373;-91
2023/12/24 14:30:07;;;;;;;0.70;0.60;;;;;;;;;;6290733;22;20475;-89
2023/12/24 14:32:33;;;;;;;0.70;0.50;;;;;;;;;;6289226;22;20386;-91
2023/12/24 14:34:59;;;;;;;0.60;0.50;;;;;;;;;;6291824;22;20795;-91
2023/12/24 14:37:25;;;;;;;0.70;0.70;;;;;;;;;;6288483;22;20376;-90
2023/12/24 14:39:51;;;;;;;0.60;0.60;;;;;;;;;;6290521;22;20434;-89